createdAt,value
2019-04-10T00:00:24.714Z,81.23
2019-04-10T00:02:55.546Z,87.50
2019-04-10T00:05:26.041Z,84.97
2019-04-10T00:07:55.758Z,87.73
2019-04-10T00:10:25.757Z,87.90
2019-04-10T00:12:56.149Z,89.87
2019-04-10T00:15:26.360Z,91.80
2019-04-10T00:17:56.036Z,87.67
2019-04-10T00:20:26.664Z,85.27
2019-04-10T00:22:56.234Z,87.30
2019-04-10T00:25:26.548Z,87.37
2019-04-10T00:27:56.336Z,83.67
2019-04-10T00:30:27.057Z,88.37
2019-04-10T00:32:56.860Z,89.20
2019-04-10T00:35:27.307Z,89.50
2019-04-10T00:37:57.540Z,91.10
2019-04-10T00:40:27.671Z,86.50
2019-04-10T00:42:58.600Z,86.70
2019-04-10T00:45:29.308Z,84.13
2019-04-10T00:47:59.569Z,78.27
2019-04-10T00:50:29.296Z,84.47
2019-04-10T00:52:58.826Z,87.30
2019-04-10T00:55:28.819Z,67.10
2019-04-10T00:57:58.655Z,79.53
2019-04-10T01:00:28.800Z,84.77
2019-04-10T01:02:58.831Z,83.97
2019-04-10T01:05:28.548Z,86.03
2019-04-10T01:07:58.342Z,79.67
2019-04-10T01:10:28.563Z,83.00
2019-04-10T01:12:58.717Z,80.40
2019-04-10T01:15:28.873Z,87.30
2019-04-10T01:17:59.088Z,78.63
2019-04-10T01:20:29.345Z,83.77
2019-04-10T01:22:59.462Z,79.80
2019-04-10T01:25:30.182Z,82.53
2019-04-10T01:28:00.535Z,79.17
2019-04-10T01:30:30.567Z,79.03
2019-04-10T01:33:00.735Z,79.50
2019-04-10T01:35:30.589Z,80.47
2019-04-10T01:38:01.471Z,79.67
2019-04-10T01:40:31.454Z,76.80
2019-04-10T01:43:09.289Z,81.07
2019-04-10T01:45:33.439Z,84.20
2019-04-10T01:48:03.764Z,77.57
2019-04-10T01:50:34.993Z,79.47
2019-04-10T01:53:04.465Z,73.87
2019-04-10T01:55:34.735Z,78.83
2019-04-10T01:58:06.781Z,84.27
2019-04-10T02:00:38.115Z,77.57
2019-04-10T02:03:07.721Z,72.00
2019-04-10T02:05:37.288Z,74.70
2019-04-10T02:08:10.355Z,82.73
2019-04-10T02:10:38.500Z,75.57
2019-04-10T02:13:07.996Z,80.77
2019-04-10T02:15:38.397Z,73.93
2019-04-10T02:18:08.875Z,72.70
2019-04-10T02:20:38.863Z,79.67
2019-04-10T02:23:08.577Z,78.67
2019-04-10T02:25:39.083Z,61.30
2019-04-10T02:28:08.995Z,80.20
2019-04-10T02:30:39.592Z,80.03
2019-04-10T02:33:10.743Z,75.73
2019-04-10T02:35:40.857Z,75.60
2019-04-10T02:38:25.932Z,77.83
2019-04-10T02:40:43.240Z,76.33
2019-04-10T02:43:14.435Z,79.13
2019-04-10T02:45:49.370Z,75.10
2019-04-10T02:48:19.456Z,72.13
2019-04-10T02:50:51.425Z,74.80
2019-04-10T02:53:21.717Z,72.93
2019-04-10T02:55:53.552Z,72.80
2019-04-10T02:58:24.273Z,79.63
2019-04-10T03:00:56.205Z,85.40
2019-04-10T03:03:25.797Z,77.37
2019-04-10T03:05:56.545Z,78.30
2019-04-10T03:08:40.998Z,78.47
2019-04-10T03:11:03.607Z,76.53
2019-04-10T03:13:29.341Z,78.13
2019-04-10T03:16:00.165Z,79.73
2019-04-10T03:18:30.542Z,73.37
2019-04-10T03:21:00.202Z,80.00
2019-04-10T03:23:29.697Z,79.33
2019-04-10T03:25:59.486Z,70.40
2019-04-10T03:28:29.469Z,80.67
2019-04-10T03:31:01.115Z,84.87
2019-04-10T03:33:45.435Z,83.47
2019-04-10T03:36:12.113Z,85.40
2019-04-10T03:38:54.495Z,90.17
2019-04-10T03:41:12.725Z,78.83
2019-04-10T03:43:42.204Z,87.87
2019-04-10T03:46:11.655Z,85.80
2019-04-10T03:48:41.142Z,89.57
2019-04-10T03:51:10.590Z,85.67
2019-04-10T03:53:40.356Z,84.87
2019-04-10T03:56:09.760Z,88.00
2019-04-10T03:58:39.795Z,82.57
2019-04-10T04:01:09.776Z,86.03
2019-04-10T04:03:39.290Z,88.80
2019-04-10T04:06:09.067Z,84.63
2019-04-10T04:08:39.522Z,87.53
2019-04-10T04:11:09.409Z,88.10
2019-04-10T04:13:39.694Z,92.73
2019-04-10T04:16:09.190Z,94.43
2019-04-10T04:18:39.414Z,92.60
2019-04-10T04:21:09.724Z,95.83
2019-04-10T04:23:39.242Z,87.10
2019-04-10T04:26:08.702Z,87.80
2019-04-10T04:28:38.164Z,90.90
2019-04-10T04:31:07.803Z,89.47
2019-04-10T04:33:38.844Z,86.73
2019-04-10T04:36:08.566Z,90.83
2019-04-10T04:38:38.924Z,87.97
2019-04-10T04:41:09.015Z,83.23
2019-04-10T04:43:39.150Z,83.40
2019-04-10T04:46:10.112Z,82.10
2019-04-10T04:48:39.660Z,91.13
2019-04-10T04:51:09.112Z,85.57
2019-04-10T04:53:39.891Z,84.40
2019-04-10T04:56:09.544Z,80.70
2019-04-10T04:58:39.292Z,78.50
2019-04-10T05:01:17.203Z,77.10
2019-04-10T05:03:46.766Z,81.30
2019-04-10T05:06:16.279Z,78.80
2019-04-10T05:08:46.300Z,73.70
2019-04-10T05:11:16.201Z,70.20
2019-04-10T05:13:46.746Z,101.57
2019-04-10T05:16:16.603Z,74.83
2019-04-10T05:18:46.112Z,67.80
2019-04-10T05:21:16.973Z,65.57
2019-04-10T05:23:47.017Z,65.57
2019-04-10T05:26:16.635Z,65.33
2019-04-10T05:28:46.672Z,65.53
2019-04-10T05:31:17.251Z,68.63
2019-04-10T05:33:47.603Z,65.47
2019-04-10T05:36:17.344Z,58.10
2019-04-10T05:38:46.893Z,61.77
2019-04-10T05:41:17.505Z,49.50
2019-04-10T05:43:47.095Z,62.70
2019-04-10T05:46:16.707Z,43.20
2019-04-10T05:48:46.275Z,49.77
2019-04-10T05:51:17.027Z,43.37
2019-04-10T05:53:47.072Z,44.27
2019-04-10T05:56:19.065Z,47.90
2019-04-10T05:58:49.108Z,49.00
2019-04-10T06:01:31.339Z,42.00
2019-04-10T06:03:50.208Z,38.40
2019-04-10T06:06:20.078Z,47.63
2019-04-10T06:08:49.592Z,36.50
2019-04-10T06:11:19.045Z,38.50
2019-04-10T06:13:49.008Z,39.67
2019-04-10T06:16:19.543Z,43.00
2019-04-10T06:18:49.353Z,39.33
2019-04-10T06:21:19.153Z,36.67
2019-04-10T06:23:49.768Z,33.60
2019-04-10T06:26:19.852Z,36.83
2019-04-10T06:28:50.485Z,32.40
2019-04-10T06:31:20.746Z,30.33
2019-04-10T06:33:50.709Z,34.40
2019-04-10T06:36:20.132Z,33.13
2019-04-10T06:38:49.608Z,37.93
2019-04-10T06:41:20.049Z,43.03
2019-04-10T06:43:49.688Z,28.83
2019-04-10T06:46:20.123Z,29.73
2019-04-10T06:48:50.038Z,28.77
2019-04-10T06:51:21.253Z,27.27
2019-04-10T06:54:01.842Z,28.07
2019-04-10T06:56:22.251Z,27.00
2019-04-10T06:58:52.014Z,25.83
2019-04-10T07:01:24.281Z,24.83
2019-04-10T07:04:00.931Z,23.93
2019-04-10T07:06:42.721Z,25.83
2019-04-10T07:08:55.520Z,24.97
2019-04-10T07:11:28.400Z,24.90
2019-04-10T07:13:57.381Z,25.43
2019-04-10T07:16:29.999Z,26.10
2019-04-10T07:19:02.743Z,24.50
2019-04-10T07:21:32.904Z,26.67
2019-04-10T07:24:05.332Z,20.37
2019-04-10T07:26:39.325Z,21.40
2019-04-10T07:29:04.646Z,21.23
2019-04-10T07:31:36.311Z,21.13
2019-04-10T07:34:06.683Z,20.77
2019-04-10T07:36:39.921Z,21.53
2019-04-10T07:39:07.898Z,24.67
2019-04-10T07:41:37.778Z,26.57
2019-04-10T07:44:08.277Z,19.47
2019-04-10T07:46:38.213Z,19.13
2019-04-10T07:49:08.548Z,22.97
2019-04-10T07:51:38.898Z,17.73
2019-04-10T07:54:08.782Z,22.37
2019-04-10T07:56:39.292Z,20.17
2019-04-10T07:59:09.277Z,20.73
2019-04-10T08:01:40.440Z,24.63
2019-04-10T08:04:10.442Z,19.70
2019-04-10T08:06:39.925Z,18.53
2019-04-10T08:09:10.518Z,17.23
2019-04-10T08:11:40.234Z,15.77
2019-04-10T08:14:10.588Z,20.50
2019-04-10T08:16:40.094Z,19.97
2019-04-10T08:19:10.399Z,18.67
2019-04-10T08:21:40.330Z,18.33
2019-04-10T08:24:09.867Z,19.93
2019-04-10T08:26:39.421Z,18.30
2019-04-10T08:29:09.911Z,18.77
2019-04-10T08:31:39.734Z,18.23
2019-04-10T08:34:09.239Z,19.97
2019-04-10T08:36:39.476Z,26.23
2019-04-10T08:39:09.238Z,22.37
2019-04-10T08:41:38.752Z,16.47
2019-04-10T08:44:08.243Z,19.37
2019-04-10T08:46:38.022Z,16.57
2019-04-10T08:49:07.822Z,21.23
2019-04-10T08:51:37.439Z,18.33
2019-04-10T08:54:07.900Z,17.23
2019-04-10T08:56:38.606Z,25.70
2019-04-10T08:59:08.155Z,16.87
2019-04-10T09:01:37.712Z,19.37
2019-04-10T09:04:07.763Z,21.93
2019-04-10T09:06:37.752Z,16.80
2019-04-10T09:09:07.735Z,21.57
2019-04-10T09:11:37.576Z,15.00
2019-04-10T09:14:07.123Z,17.80
2019-04-10T09:16:36.731Z,20.63
2019-04-10T09:19:06.177Z,16.77
2019-04-10T09:21:35.663Z,16.03
2019-04-10T09:24:05.148Z,16.20
2019-04-10T09:26:34.632Z,17.80
2019-04-10T09:29:04.609Z,17.77
2019-04-10T09:31:34.047Z,16.43
2019-04-10T09:34:03.678Z,15.50
2019-04-10T09:36:33.374Z,16.13
2019-04-10T09:39:05.268Z,17.00
2019-04-10T09:41:34.835Z,16.20
2019-04-10T09:44:04.517Z,16.03
2019-04-10T09:46:35.002Z,15.17
2019-04-10T09:49:05.523Z,17.97
2019-04-10T09:51:36.168Z,17.13
2019-04-10T09:54:05.827Z,15.80
2019-04-10T09:56:36.407Z,14.37
2019-04-10T09:59:06.006Z,23.07
2019-04-10T10:01:35.844Z,19.73
2019-04-10T10:04:05.370Z,16.77
2019-04-10T10:06:36.655Z,14.97
2019-04-10T10:09:08.359Z,14.77
2019-04-10T10:11:38.600Z,20.83
2019-04-10T10:14:08.332Z,18.43
2019-04-10T10:16:38.062Z,17.13
2019-04-10T10:19:07.957Z,13.43
2019-04-10T10:21:38.814Z,18.77
2019-04-10T10:24:08.662Z,18.43
2019-04-10T10:26:38.312Z,17.60
2019-04-10T10:29:07.712Z,14.77
2019-04-10T10:31:38.023Z,14.13
2019-04-10T10:34:08.128Z,18.77
2019-04-10T10:36:41.868Z,18.33
2019-04-10T10:39:18.876Z,14.03
2019-04-10T10:41:49.043Z,20.20
2019-04-10T10:44:19.343Z,16.93
2019-04-10T10:46:49.540Z,13.97
2019-04-10T10:49:20.158Z,16.20
2019-04-10T10:51:49.633Z,14.57
2019-04-10T10:54:19.084Z,14.83
2019-04-10T10:56:48.917Z,16.17
2019-04-10T10:59:19.603Z,17.40
2019-04-10T11:01:49.186Z,18.70
2019-04-10T11:04:19.105Z,22.70
2019-04-10T11:06:56.066Z,15.93
2019-04-10T11:09:19.904Z,17.47
2019-04-10T11:11:49.531Z,24.73
2019-04-10T11:14:19.189Z,18.73
2019-04-10T11:16:49.473Z,17.87
2019-04-10T11:19:19.832Z,18.63
2019-04-10T11:21:49.713Z,23.63
2019-04-10T11:24:19.635Z,16.07
2019-04-10T11:26:50.414Z,20.20
2019-04-10T11:29:21.818Z,16.93
2019-04-10T11:31:51.856Z,17.57
2019-04-10T11:34:22.619Z,17.23
2019-04-10T11:37:12.908Z,21.20
2019-04-10T11:39:28.253Z,21.60
2019-04-10T11:41:55.321Z,20.27
2019-04-10T11:44:28.212Z,21.93
2019-04-10T11:46:58.977Z,20.50
2019-04-10T11:49:29.478Z,22.50
2019-04-10T11:52:01.430Z,21.90
2019-04-10T11:54:32.764Z,19.67
2019-04-10T11:57:03.238Z,20.73
2019-04-10T11:59:35.989Z,22.80
2019-04-10T12:04:45.049Z,19.37
2019-04-10T12:07:09.748Z,22.83
2019-04-10T12:12:09.431Z,15.93
2019-04-10T12:14:39.621Z,33.63
2019-04-10T12:17:09.650Z,21.40
2019-04-10T12:19:39.180Z,17.43
2019-04-10T12:22:09.504Z,19.40
2019-04-10T12:24:39.223Z,18.50
2019-04-10T12:27:09.195Z,20.27
2019-04-10T12:29:38.744Z,18.33
2019-04-10T12:32:08.437Z,21.77
2019-04-10T12:34:37.903Z,17.57
2019-04-10T12:37:07.438Z,20.30
2019-04-10T12:39:36.894Z,19.07
2019-04-10T12:42:07.942Z,16.17
2019-04-10T12:44:39.469Z,21.93
2019-04-10T12:47:08.622Z,20.43
2019-04-10T12:49:39.358Z,17.67
2019-04-10T12:52:10.080Z,17.53
2019-04-10T12:54:40.490Z,20.10
2019-04-10T12:57:10.602Z,19.07
2019-04-10T12:59:41.635Z,18.80
2019-04-10T13:02:12.326Z,21.07
2019-04-10T13:04:42.929Z,16.20
2019-04-10T13:07:13.643Z,16.57
2019-04-10T13:09:44.281Z,21.20
2019-04-10T13:12:13.838Z,18.77
2019-04-10T13:14:43.297Z,19.97
2019-04-10T13:17:13.052Z,16.57
2019-04-10T13:19:42.963Z,19.00
2019-04-10T13:22:12.714Z,17.23
2019-04-10T13:24:42.293Z,16.67
2019-04-10T13:27:12.577Z,21.90
2019-04-10T13:29:42.667Z,13.87
2019-04-10T13:32:12.184Z,14.93
2019-04-10T13:34:41.731Z,17.03
2019-04-10T13:37:12.327Z,16.77
2019-04-10T13:39:41.826Z,16.43
2019-04-10T13:42:11.377Z,16.30
2019-04-10T13:44:41.212Z,15.87
2019-04-10T13:47:10.717Z,18.40
2019-04-10T13:49:40.183Z,18.87
2019-04-10T13:52:09.996Z,24.87
2019-04-10T13:54:39.477Z,12.97
2019-04-10T13:57:09.790Z,14.67
2019-04-10T13:59:39.457Z,20.70
2019-04-10T14:02:10.660Z,20.03
2019-04-10T14:04:45.226Z,13.43
2019-04-10T14:07:17.947Z,15.07
2019-04-10T14:09:52.414Z,13.23
2019-04-10T14:12:24.945Z,35.13
2019-04-10T14:14:57.241Z,15.70
2019-04-10T14:17:58.085Z,15.33
2019-04-10T14:20:31.250Z,15.00
2019-04-10T14:23:08.333Z,12.80
2019-04-10T14:26:02.264Z,13.73
2019-04-10T14:28:37.522Z,12.13
2019-04-10T14:31:42.846Z,12.63
2019-04-10T14:34:20.223Z,13.30
2019-04-10T14:36:54.804Z,17.90
2019-04-10T14:39:29.999Z,14.13
2019-04-10T14:42:04.401Z,14.53
2019-04-10T14:44:40.940Z,15.27
2019-04-10T14:47:21.264Z,14.23
2019-04-10T14:49:54.895Z,15.67
2019-04-10T14:52:31.057Z,15.17
2019-04-10T14:55:01.954Z,16.63
2019-04-10T14:57:39.008Z,15.40
2019-04-10T15:00:20.239Z,15.17
2019-04-10T15:02:51.390Z,17.27
2019-04-10T15:05:26.013Z,14.37
2019-04-10T15:07:59.981Z,16.90
2019-04-10T15:10:42.075Z,11.40
2019-04-10T15:13:17.731Z,15.33
2019-04-10T15:15:45.119Z,13.53
2019-04-10T15:18:20.482Z,13.67
2019-04-10T15:21:00.844Z,13.47
2019-04-10T15:23:35.768Z,17.97
2019-04-10T15:26:13.420Z,16.37
2019-04-10T15:28:47.772Z,14.30
2019-04-10T15:31:19.394Z,16.53
2019-04-10T15:33:51.888Z,12.90
2019-04-10T15:36:29.749Z,15.20
2019-04-10T15:39:00.327Z,22.40
2019-04-10T15:41:39.340Z,14.10
2019-04-10T15:44:28.398Z,17.13
2019-04-10T15:47:15.166Z,16.43
2019-04-10T15:49:44.995Z,14.67
2019-04-10T15:52:24.616Z,24.13
2019-04-10T15:54:50.040Z,13.70
2019-04-10T15:57:22.761Z,15.47
2019-04-10T15:59:55.176Z,14.33
2019-04-10T16:02:30.568Z,17.03
2019-04-10T16:05:04.822Z,15.33
2019-04-10T16:07:42.893Z,13.13
2019-04-10T16:10:19.460Z,13.47
2019-04-10T16:13:00.697Z,16.30
2019-04-10T16:15:41.287Z,13.10
2019-04-10T16:18:28.443Z,17.63
2019-04-10T16:21:04.097Z,16.60
2019-04-10T16:23:44.231Z,40.90
2019-04-10T16:26:17.164Z,12.43
2019-04-10T16:28:56.407Z,12.90
2019-04-10T16:31:23.593Z,15.03
2019-04-10T16:34:00.869Z,14.30
2019-04-10T16:36:38.894Z,13.53
2019-04-10T16:39:15.447Z,13.40
2019-04-10T16:41:54.511Z,13.40
2019-04-10T16:44:24.811Z,13.27
2019-04-10T16:46:55.336Z,14.97
2019-04-10T16:49:24.857Z,13.43
2019-04-10T16:51:54.500Z,12.97
2019-04-10T16:54:25.033Z,13.17
2019-04-10T16:56:56.202Z,69.53
2019-04-10T16:59:26.157Z,17.87
2019-04-10T17:02:00.315Z,16.23
2019-04-10T17:04:29.881Z,14.47
2019-04-10T17:06:59.334Z,14.77
2019-04-10T17:09:29.886Z,14.10
2019-04-10T17:11:59.340Z,15.97
2019-04-10T17:14:29.325Z,17.40
2019-04-10T17:16:58.879Z,15.27
2019-04-10T17:19:28.761Z,13.13
2019-04-10T17:21:58.821Z,18.47
2019-04-10T17:24:29.291Z,15.10
2019-04-10T17:26:59.328Z,12.53
2019-04-10T17:29:29.393Z,14.93
2019-04-10T17:31:59.287Z,28.07
2019-04-10T17:34:29.021Z,14.70
2019-04-10T17:36:59.186Z,14.70
2019-04-10T17:39:28.745Z,19.20
2019-04-10T17:41:58.200Z,18.50
2019-04-10T17:44:27.723Z,17.83
2019-04-10T17:46:57.626Z,17.13
2019-04-10T17:49:27.699Z,16.10
2019-04-10T17:51:58.706Z,20.43
2019-04-10T17:54:29.762Z,18.17
2019-04-10T17:57:00.296Z,14.03
2019-04-10T17:59:30.241Z,15.93
2019-04-10T18:02:01.666Z,19.43
2019-04-10T18:04:31.907Z,17.20
2019-04-10T18:07:01.757Z,17.07
2019-04-10T18:09:32.699Z,18.77
2019-04-10T18:12:02.217Z,17.17
2019-04-10T18:14:31.648Z,19.97
2019-04-10T18:17:02.530Z,17.70
2019-04-10T18:19:32.442Z,16.93
2019-04-10T18:22:02.428Z,18.33
2019-04-10T18:24:33.133Z,17.07
2019-04-10T18:27:03.754Z,18.63
2019-04-10T18:29:33.244Z,16.37
2019-04-10T18:32:02.783Z,14.97
2019-04-10T18:34:33.378Z,16.10
2019-04-10T18:37:04.383Z,17.63
2019-04-10T18:39:34.640Z,17.17
2019-04-10T18:42:05.567Z,16.87
2019-04-10T18:44:35.321Z,17.43
2019-04-10T18:47:05.004Z,18.80
2019-04-10T18:49:34.389Z,18.80
2019-04-10T18:52:03.951Z,18.57
2019-04-10T18:54:34.000Z,19.50
2019-04-10T18:57:05.291Z,20.60
2019-04-10T18:59:39.325Z,15.93
2019-04-10T19:02:28.429Z,18.57
2019-04-10T19:05:14.001Z,18.40
2019-04-10T19:07:43.492Z,17.43
2019-04-10T19:10:12.948Z,19.73
2019-04-10T19:12:43.222Z,20.47
2019-04-10T19:15:13.250Z,17.70
2019-04-10T19:17:43.478Z,16.57
2019-04-10T19:20:13.503Z,16.60
2019-04-10T19:22:44.664Z,17.53
2019-04-10T19:25:14.576Z,16.80
2019-04-10T19:27:44.589Z,17.30
2019-04-10T19:30:17.152Z,18.20
2019-04-10T19:32:47.771Z,20.97
2019-04-10T19:35:17.562Z,18.10
2019-04-10T19:37:49.986Z,19.83
2019-04-10T19:40:19.190Z,18.97
2019-04-10T19:42:49.384Z,25.67
2019-04-10T19:45:19.514Z,20.83
2019-04-10T19:47:49.223Z,18.63
2019-04-10T19:50:19.442Z,20.43
2019-04-10T19:52:49.060Z,17.93
2019-04-10T19:55:19.813Z,15.83
2019-04-10T19:57:49.855Z,19.03
2019-04-10T20:00:22.156Z,18.17
2019-04-10T20:02:51.610Z,17.93
2019-04-10T20:05:21.215Z,17.17
2019-04-10T20:07:51.395Z,27.23
2019-04-10T20:10:21.350Z,15.07
2019-04-10T20:12:51.090Z,21.57
2019-04-10T20:15:20.566Z,13.87
2019-04-10T20:17:50.410Z,19.30
2019-04-10T20:20:20.017Z,13.47
2019-04-10T20:22:50.121Z,18.93
2019-04-10T20:25:20.111Z,11.60
2019-04-10T20:27:50.103Z,15.03
2019-04-10T20:30:21.505Z,15.63
2019-04-10T20:32:50.972Z,16.90
2019-04-10T20:35:20.487Z,13.27
2019-04-10T20:37:51.151Z,15.57
2019-04-10T20:40:20.837Z,14.97
2019-04-10T20:42:50.859Z,12.53
2019-04-10T20:45:21.124Z,15.10
2019-04-10T20:47:51.843Z,13.83
2019-04-10T20:50:21.398Z,14.30
2019-04-10T20:52:51.562Z,17.03
2019-04-10T20:55:21.635Z,13.50
2019-04-10T20:57:52.075Z,16.00
2019-04-10T21:00:30.154Z,16.83
2019-04-10T21:03:00.670Z,21.47
2019-04-10T21:05:30.185Z,17.10
2019-04-10T21:07:59.893Z,21.07
2019-04-10T21:10:29.419Z,17.93
2019-04-10T21:12:59.680Z,23.00
2019-04-10T21:15:29.973Z,15.73
2019-04-10T21:17:59.463Z,22.50
2019-04-10T21:20:28.931Z,18.53
2019-04-10T21:22:58.473Z,23.27
2019-04-10T21:25:27.939Z,17.03
2019-04-10T21:27:57.832Z,20.63
2019-04-10T21:30:29.003Z,17.83
2019-04-10T21:33:16.824Z,25.60
2019-04-10T21:35:47.656Z,19.10
2019-04-10T21:38:17.302Z,19.00
2019-04-10T21:40:47.409Z,26.03
2019-04-10T21:43:16.941Z,25.80
2019-04-10T21:45:47.560Z,22.67
2019-04-10T21:48:17.026Z,26.30
2019-04-10T21:50:46.516Z,22.37
2019-04-10T21:53:16.452Z,20.47
2019-04-10T21:55:45.986Z,23.63
2019-04-10T21:58:16.365Z,26.40
2019-04-10T22:00:53.120Z,22.90
2019-04-10T22:03:23.464Z,26.27
2019-04-10T22:06:00.005Z,26.93
2019-04-10T22:08:37.152Z,22.03
2019-04-10T22:11:08.434Z,29.43
2019-04-10T22:13:38.094Z,27.23
2019-04-10T22:16:09.443Z,24.00
2019-04-10T22:18:39.408Z,26.70
2019-04-10T22:21:09.342Z,16.87
2019-04-10T22:23:38.793Z,24.13
2019-04-10T22:26:09.255Z,27.13
2019-04-10T22:28:39.351Z,27.93
2019-04-10T22:31:09.622Z,25.97
2019-04-10T22:33:40.443Z,26.53
2019-04-10T22:36:10.972Z,22.50
2019-04-10T22:38:41.855Z,24.83
2019-04-10T22:41:20.635Z,25.33
2019-04-10T22:43:44.970Z,25.50
2019-04-10T22:46:15.126Z,23.10
2019-04-10T22:48:45.531Z,22.03
2019-04-10T22:51:15.261Z,27.10
2019-04-10T22:53:45.869Z,25.30
2019-04-10T22:56:15.764Z,27.27
2019-04-10T22:58:45.630Z,22.53
2019-04-10T23:01:15.614Z,22.53
2019-04-10T23:03:45.382Z,26.33
2019-04-10T23:06:15.295Z,27.33
2019-04-10T23:08:44.918Z,25.40
2019-04-10T23:11:15.229Z,21.73
2019-04-10T23:13:45.879Z,24.73
2019-04-10T23:16:17.110Z,30.63
2019-04-10T23:18:47.677Z,25.13
2019-04-10T23:21:18.549Z,24.77
2019-04-10T23:23:48.921Z,22.63
2019-04-10T23:26:20.733Z,26.33
2019-04-10T23:28:51.709Z,28.40
2019-04-10T23:31:21.623Z,25.70
2019-04-10T23:33:52.347Z,23.67
2019-04-10T23:36:23.543Z,24.33
2019-04-10T23:38:53.480Z,23.00
2019-04-10T23:41:23.368Z,25.97
2019-04-10T23:43:53.640Z,29.17
2019-04-10T23:46:23.555Z,25.70
2019-04-10T23:48:53.443Z,27.73
2019-04-10T23:51:23.357Z,20.37
2019-04-10T23:53:53.138Z,27.83
2019-04-10T23:56:22.620Z,23.90
2019-04-10T23:58:52.083Z,29.47
